Time;durP1;ratioP1;P1;durP2;ratioP2;P2;SDS_P1;SDS_P2;PMS_P1;PMS_P2;Temp;Humidity;BMP_temperature;BMP_pressure;BME280_temperature;BME280_humidity;BME280_pressure;Samples;Min_cycle;Max_cycle;Signal;HPM_P1;HPM_P2
2022/11/20 00:00:49;;;;;;;;;9.50;9.50;;;;;9.49;68.27;100550.22;5051934;28;46050;-70
2022/11/20 00:03:14;;;;;;;;;11.00;11.00;;;;;9.47;67.86;100552.06;5054059;28;45391;-70
2022/11/20 00:05:40;;;;;;;;;12.00;12.00;;;;;9.43;67.84;100554.88;5054351;28;45742;-69
2022/11/20 00:08:06;;;;;;;;;10.25;10.25;;;;;9.38;67.83;100549.75;5054416;28;45551;-70
2022/11/20 00:10:31;;;;;;;;;15.50;15.50;;;;;9.33;68.36;100549.94;5054380;28;45615;-70
2022/11/20 00:13:00;;;;;;;;;10.75;10.75;;;;;9.29;67.71;100542.22;5054042;28;45462;-70
2022/11/20 00:15:25;;;;;;;;;11.50;11.50;;;;;9.28;67.88;100553.63;5054464;28;45439;-70
2022/11/20 00:17:51;;;;;;;;;14.00;14.00;;;;;9.25;67.91;100557.22;5052808;28;45435;-70
2022/11/20 00:20:16;;;;;;;;;12.75;10.75;;;;;9.23;67.85;100553.81;5053914;28;45402;-70
2022/11/20 00:22:41;;;;;;;;;14.00;14.00;;;;;9.21;67.91;100550.38;5054239;28;45272;-70
2022/11/20 00:25:07;;;;;;;;;13.50;11.25;;;;;9.15;68.03;100551.44;5052899;28;45236;-70
2022/11/20 00:27:32;;;;;;;;;11.00;11.00;;;;;9.09;67.52;100545.56;5053702;28;45332;-71
2022/11/20 00:29:58;;;;;;;;;10.00;10.00;;;;;9.06;67.53;100555.25;5054359;28;46515;-70
2022/11/20 00:32:23;;;;;;;;;10.25;10.25;;;;;8.96;67.77;100547.72;5053900;28;45220;-70
2022/11/20 00:34:48;;;;;;;;;9.00;9.00;;;;;8.98;67.71;100561.66;5054562;28;45227;-71
2022/11/20 00:37:14;;;;;;;;;13.00;13.00;;;;;8.97;68.11;100557.31;5054405;28;45541;-70
2022/11/20 00:39:39;;;;;;;;;8.00;8.00;;;;;8.94;68.26;100563.50;5053685;28;46141;-70
2022/11/20 00:42:04;;;;;;;;;14.25;14.25;;;;;8.88;67.94;100556.72;5053953;28;45394;-69
2022/11/20 00:44:30;;;;;;;;;21.25;21.25;;;;;8.81;68.44;100549.09;5053926;28;45411;-70
2022/11/20 00:46:55;;;;;;;;;20.25;20.25;;;;;8.79;68.19;100549.16;5054572;28;45896;-70
2022/11/20 00:49:21;;;;;;;;;12.50;12.50;;;;;8.83;68.57;100566.50;5053061;28;60269;-69
2022/11/20 00:51:46;;;;;;;;;12.25;12.25;;;;;8.81;68.55;100568.34;5053746;28;45395;-70
2022/11/20 00:54:11;;;;;;;;;10.75;10.75;;;;;8.79;68.60;100567.53;5052501;28;45213;-69
2022/11/20 00:56:37;;;;;;;;;8.00;8.00;;;;;8.72;68.65;100560.75;5052616;28;45462;-71
2022/11/20 00:59:02;;;;;;;;;10.00;10.00;;;;;8.72;68.58;100560.75;5054011;28;46355;-70
2022/11/20 01:01:29;;;;;;;;;15.00;15.00;;;;;8.71;69.16;100564.28;5052191;28;45354;-70
2022/11/20 01:03:56;;;;;;;;;13.50;13.50;;;;;8.65;68.54;100561.88;5052088;28;45399;-71
2022/11/20 01:06:26;;;;;;;;;11.00;11.00;;;;;8.64;68.66;100558.38;5053347;28;45551;-70
2022/11/20 01:08:55;;;;;;;;;9.00;9.00;;;;;8.61;68.85;100567.22;5053243;28;46834;-70
2022/11/20 01:11:23;;;;;;;;;10.00;9.25;;;;;8.56;68.87;100561.25;5053504;28;45374;-70
2022/11/20 01:13:50;;;;;;;;;10.25;10.25;;;;;8.54;68.73;100567.44;5056445;28;45422;-69
2022/11/20 01:16:21;;;;;;;;;22.25;20.00;;;;;8.52;68.70;100564.03;5055332;28;45240;-70
2022/11/20 01:18:49;;;;;;;;;13.00;11.00;;;;;8.46;68.72;100562.41;5056564;28;46345;-70
2022/11/20 01:21:21;;;;;;;;;16.25;16.25;;;;;8.43;68.76;100565.13;5056705;28;45312;-70
2022/11/20 01:23:48;;;;;;;;;8.00;8.00;;;;;8.43;69.16;100565.13;5056607;28;45200;-70
2022/11/20 01:26:16;;;;;;;;;8.25;8.25;;;;;8.39;68.94;100566.13;5055220;28;45615;-70
2022/11/20 01:28:43;;;;;;;;;7.25;7.25;;;;;8.37;68.85;100570.56;5054858;28;46338;-69
2022/11/20 01:31:12;;;;;;;;;6.00;6.00;;;;;8.30;68.95;100557.66;5056544;28;45383;-70
2022/11/20 01:33:37;;;;;;;;;6.00;6.00;;;;;8.26;68.84;100557.81;5055637;28;45307;-69
2022/11/20 01:36:05;;;;;;;;;8.25;8.25;;;;;8.23;68.79;100568.38;5056760;28;45217;-69
2022/11/20 01:38:30;;;;;;;;;6.50;6.50;;;;;8.19;68.63;100562.38;5056618;28;46290;-70
2022/11/20 01:40:56;;;;;;;;;16.25;16.25;;;;;8.15;69.05;100555.50;5056534;28;45239;-70
2022/11/20 01:43:22;;;;;;;;;9.25;9.25;;;;;8.14;68.85;100553.78;5056857;28;45222;-70
2022/11/20 01:45:57;;;;;;;;;6.00;6.00;;;;;8.12;69.29;100555.59;5057113;28;45407;-70
2022/11/20 01:48:28;;;;;;;;;5.25;5.25;;;;;8.09;68.69;100559.19;5056199;28;46080;-70
2022/11/20 01:50:54;;;;;;;;;7.25;7.25;;;;;8.04;68.77;100555.84;5056482;28;45480;-70
2022/11/20 01:53:28;;;;;;;;;4.50;4.50;;;;;8.02;68.76;100553.25;5056336;28;45268;-70
2022/11/20 01:55:56;;;;;;;;;7.25;7.25;;;;;8.00;69.32;100557.69;5056559;28;45371;-71
2022/11/20 01:58:28;;;;;;;;;7.00;7.00;;;;;7.98;69.12;100550.78;5056230;28;46397;-70
2022/11/20 02:00:53;;;;;;;;;6.00;6.00;;;;;7.89;69.07;100539.66;5056283;28;45316;-69
2022/11/20 02:03:20;;;;;;;;;5.00;5.00;;;;;7.89;69.38;100544.06;5056329;28;45269;-69
2022/11/20 02:06:11;;;;;;;;;4.75;4.75;;;;;7.88;69.76;100551.03;5056683;28;45227;-70
2022/11/20 02:08:37;;;;;;;;;6.00;6.00;;;;;7.87;69.39;100548.47;5054195;28;45332;-70
2022/11/20 02:11:03;;;;;;;;;5.00;5.00;;;;;7.87;69.82;100548.47;5056385;28;45204;-71
2022/11/20 02:13:43;;;;;;;;;5.50;5.50;;;;;7.81;69.93;100540.81;5056472;28;45545;-70
2022/11/20 02:16:36;;;;;;;;;5.25;5.25;;;;;7.85;69.65;100542.44;5057317;28;45380;-70
2022/11/20 02:19:06;;;;;;;;;4.00;4.00;;;;;7.85;70.14;100540.66;5051662;28;45849;-70
2022/11/20 02:21:48;;;;;;;;;7.00;7.00;;;;;7.84;69.66;100543.34;5056231;28;45475;-70
2022/11/20 02:24:17;;;;;;;;;7.00;7.00;;;;;7.87;70.20;100543.25;5055741;28;45395;-70
2022/11/20 02:27:07;;;;;;;;;5.00;5.00;;;;;7.86;69.87;100536.28;5056553;28;45292;-69
2022/11/20 02:29:50;;;;;;;;;6.00;6.00;;;;;7.86;69.64;100542.38;5056489;28;46798;-70
2022/11/20 02:32:26;;;;;;;;;2.00;2.00;;;;;7.84;69.82;100543.34;5056020;28;45237;-69
2022/11/20 02:34:51;;;;;;;;;4.00;4.00;;;;;7.75;69.60;100540.09;5056353;28;45422;-69
2022/11/20 02:37:17;;;;;;;;;5.00;5.00;;;;;7.81;69.98;100539.03;5055038;28;45395;-70
2022/11/20 02:39:45;;;;;;;;;4.00;4.00;;;;;7.81;70.29;100540.81;5056213;28;46205;-71
2022/11/20 02:42:11;;;;;;;;;6.75;6.75;;;;;7.79;70.36;100527.75;5055843;28;45396;-71
2022/11/20 02:44:36;;;;;;;;;5.00;5.00;;;;;7.81;69.87;100520.69;5055968;28;45386;-71
2022/11/20 02:47:01;;;;;;;;;4.50;4.50;;;;;7.84;69.67;100522.38;5054511;28;45540;-70
2022/11/20 02:49:27;;;;;;;;;5.50;4.75;;;;;7.81;69.76;100512.00;5055973;28;46198;-71
2022/11/20 02:51:52;;;;;;;;;5.75;5.75;;;;;7.84;70.16;100509.28;5054741;28;62846;-70
2022/11/20 02:54:18;;;;;;;;;5.25;5.00;;;;;7.82;69.34;100503.25;5055787;28;45293;-70
2022/11/20 02:56:43;;;;;;;;;5.00;5.00;;;;;7.78;69.93;100496.38;5055774;28;45914;-70
2022/11/20 02:59:09;;;;;;;;;7.00;7.00;;;;;7.83;69.77;100497.09;5055733;28;46496;-71
2022/11/20 03:01:34;;;;;;;;;4.00;4.00;;;;;7.82;69.86;100487.53;5055598;28;45313;-70
2022/11/20 03:04:00;;;;;;;;;4.75;4.75;;;;;7.78;69.40;100483.28;5055396;28;45292;-69
2022/11/20 03:06:25;;;;;;;;;5.25;5.25;;;;;7.79;69.83;100485.00;5056107;28;45287;-71
2022/11/20 03:08:51;;;;;;;;;6.00;6.00;;;;;7.75;70.08;100479.84;5055898;28;46234;-70
2022/11/20 03:11:16;;;;;;;;;6.25;6.25;;;;;7.74;69.93;100477.28;5053736;28;45905;-70
2022/11/20 03:13:42;;;;;;;;;6.25;6.25;;;;;7.71;69.46;100478.22;5055739;28;45344;-70
2022/11/20 03:16:19;;;;;;;;;5.00;4.50;;;;;7.70;69.56;100459.94;5055388;28;45559;-69
2022/11/20 03:18:45;;;;;;;;;5.75;5.75;;;;;7.75;70.40;100478.97;5055268;28;45394;-71
2022/11/20 03:21:12;;;;;;;;;4.00;4.00;;;;;7.73;69.89;100467.69;5055262;28;45295;-69
2022/11/20 03:23:38;;;;;;;;;3.50;3.50;;;;;7.73;70.24;100471.19;5055423;28;45405;-70
2022/11/20 03:26:19;;;;;;;;;6.25;6.25;;;;;7.66;70.02;100453.94;5055673;28;45180;-71
2022/11/20 03:29:10;;;;;;;;;5.00;5.00;;;;;7.66;70.15;100464.44;5056015;28;45428;-70
2022/11/20 03:31:42;;;;;;;;;5.25;5.25;;;;;7.63;70.56;100454.03;5051875;28;45411;-69
2022/11/20 03:34:09;;;;;;;;;4.00;4.00;;;;;7.58;70.85;100456.78;5054926;28;45354;-69
2022/11/20 03:36:36;;;;;;;;;5.75;5.00;;;;;7.63;71.02;100456.66;5053602;28;45478;-69
2022/11/20 03:39:02;;;;;;;;;5.00;5.00;;;;;7.60;71.17;100457.59;5054307;28;45693;-69
2022/11/20 03:41:30;;;;;;;;;4.00;4.00;;;;;7.65;70.82;100456.59;5054309;28;45247;-70
2022/11/20 03:44:00;;;;;;;;;27.00;27.00;;;;;7.64;71.13;100462.75;5054399;28;45369;-70
2022/11/20 03:46:26;;;;;;;;;4.25;4.25;;;;;7.62;70.95;100454.06;5054923;28;45737;-69
2022/11/20 03:48:52;;;;;;;;;7.00;7.00;;;;;7.61;71.19;100455.84;5054232;28;45585;-69
2022/11/20 03:51:30;;;;;;;;;6.75;6.75;;;;;7.65;70.80;100460.09;5052912;28;46204;-70
2022/11/20 03:53:59;;;;;;;;;7.00;7.00;;;;;7.65;71.29;100459.22;5054741;28;45426;-70
2022/11/20 03:56:28;;;;;;;;;4.00;4.00;;;;;7.60;71.06;100446.28;5055330;28;45639;-70
2022/11/20 03:58:53;;;;;;;;;4.75;4.75;;;;;7.64;70.97;100453.13;5054614;28;45439;-71
2022/11/20 04:01:21;;;;;;;;;5.00;5.00;;;;;7.67;71.31;100447.81;5054284;28;45409;-70
2022/11/20 04:03:47;;;;;;;;;4.00;4.00;;;;;7.64;70.84;100434.81;5053277;28;45211;-68
2022/11/20 04:06:28;;;;;;;;;4.00;4.00;;;;;7.72;71.12;100442.41;5055556;28;45191;-71
2022/11/20 04:08:55;;;;;;;;;7.75;6.75;;;;;7.75;70.75;100452.78;5054146;28;48136;-71
2022/11/20 04:11:25;;;;;;;;;5.00;5.00;;;;;7.74;70.29;100441.47;5054302;28;45463;-70
2022/11/20 04:13:53;;;;;;;;;4.25;4.25;;;;;7.82;70.21;100448.25;5054594;28;45410;-69
2022/11/20 04:16:19;;;;;;;;;4.50;4.50;;;;;7.81;70.81;100441.28;5054579;28;45331;-70
2022/11/20 04:18:44;;;;;;;;;4.00;4.00;;;;;7.87;70.60;100443.72;5054851;28;45370;-70
2022/11/20 04:21:11;;;;;;;;;3.50;3.50;;;;;7.89;70.91;100439.28;5054878;28;45475;-70
2022/11/20 04:23:37;;;;;;;;;3.00;3.00;;;;;7.90;70.77;100439.22;5054560;28;45385;-70
2022/11/20 04:26:11;;;;;;;;;4.00;4.00;;;;;7.90;70.52;100436.59;5054912;28;45481;-69
2022/11/20 04:28:38;;;;;;;;;4.00;4.00;;;;;7.96;70.99;100434.72;5054298;28;45347;-70
2022/11/20 04:31:12;;;;;;;;;5.00;5.00;;;;;7.99;70.97;100432.00;5054469;28;45339;-72
2022/11/20 04:33:38;;;;;;;;;5.75;5.75;;;;;7.96;71.02;100424.25;5054499;28;45331;-69
2022/11/20 04:36:07;;;;;;;;;5.75;5.75;;;;;7.98;70.78;100431.13;5054471;28;45254;-69
2022/11/20 04:38:33;;;;;;;;;6.75;6.75;;;;;7.98;70.69;100433.75;5054006;28;46719;-70
2022/11/20 04:41:00;;;;;;;;;5.00;5.00;;;;;7.95;70.79;100433.84;5054922;28;45504;-69
2022/11/20 04:43:26;;;;;;;;;3.00;3.00;;;;;7.97;70.88;100441.69;5053960;28;45346;-70
2022/11/20 04:45:56;;;;;;;;;5.50;4.00;;;;;7.97;70.92;100431.22;5054849;28;45460;-70
2022/11/20 04:48:23;;;;;;;;;4.25;4.00;;;;;7.95;70.46;100431.25;5058305;28;46283;-71
2022/11/20 04:50:48;;;;;;;;;3.25;3.25;;;;;7.92;70.35;100427.84;5058486;28;45395;-70
2022/11/20 04:53:13;;;;;;;;;6.00;6.00;;;;;7.95;70.70;100431.25;5057230;28;45422;-70
2022/11/20 04:55:39;;;;;;;;;5.00;5.00;;;;;7.94;70.61;100432.16;5057657;28;45270;-70
2022/11/20 04:58:04;;;;;;;;;3.50;3.50;;;;;7.97;70.92;100428.59;5057172;28;46040;-70
2022/11/20 05:00:30;;;;;;;;;5.00;5.00;;;;;7.93;70.36;100430.44;5057350;28;45452;-70
2022/11/20 05:02:55;;;;;;;;;3.00;3.00;;;;;7.95;70.58;100433.00;5057828;28;45917;-70
2022/11/20 05:05:20;;;;;;;;;4.50;4.00;;;;;7.92;70.52;100420.84;5058081;28;45495;-69
2022/11/20 05:07:46;;;;;;;;;5.00;5.00;;;;;7.95;70.58;100426.00;5057668;28;46241;-73
2022/11/20 05:10:11;;;;;;;;;6.00;6.00;;;;;7.95;70.26;100412.03;5057195;28;51099;-69
2022/11/20 05:12:36;;;;;;;;;8.75;7.00;;;;;7.95;70.33;100412.03;5057245;28;45298;-69
2022/11/20 05:15:02;;;;;;;;;4.75;4.00;;;;;7.95;70.98;100409.41;5057422;28;45367;-70
2022/11/20 05:17:27;;;;;;;;;7.00;7.00;;;;;7.99;69.97;100414.53;5057503;28;45463;-69
2022/11/20 05:19:52;;;;;;;;;4.00;4.00;;;;;8.02;70.18;100416.19;5057583;28;45189;-70
2022/11/20 05:22:18;;;;;;;;;5.00;5.00;;;;;8.05;70.54;100413.47;5057930;28;45275;-71
2022/11/20 05:24:43;;;;;;;;;5.00;5.00;;;;;8.06;70.20;100415.19;5058158;28;45711;-71
2022/11/20 05:27:08;;;;;;;;;4.00;3.75;;;;;8.01;70.25;100394.38;5057218;28;45622;-69
2022/11/20 05:29:34;;;;;;;;;4.00;4.00;;;;;8.04;70.54;100406.53;5057015;28;45245;-69
2022/11/20 05:31:59;;;;;;;;;4.00;4.00;;;;;8.07;69.75;100405.56;5056882;28;45271;-69
2022/11/20 05:34:24;;;;;;;;;3.75;3.75;;;;;8.08;69.85;100415.13;5056947;28;45379;-71
2022/11/20 05:36:50;;;;;;;;;5.00;5.00;;;;;8.10;70.30;100405.44;5055522;28;47968;-69
2022/11/20 05:39:15;;;;;;;;;7.25;7.25;;;;;8.13;70.60;100411.47;5056678;28;45358;-69
2022/11/20 05:41:40;;;;;;;;;6.00;6.00;;;;;8.15;70.27;100408.78;5056507;28;45266;-70
2022/11/20 05:44:06;;;;;;;;;7.25;7.25;;;;;8.10;70.71;100401.09;5057175;28;45255;-71
2022/11/20 05:46:31;;;;;;;;;6.00;6.00;;;;;8.04;70.56;100389.03;5055259;28;47246;-70
2022/11/20 05:48:57;;;;;;;;;7.50;7.50;;;;;8.09;70.75;100404.63;5056838;28;45345;-70
2022/11/20 05:51:23;;;;;;;;;6.00;6.00;;;;;8.07;70.58;100408.16;5057044;28;45360;-70
2022/11/20 05:53:49;;;;;;;;;7.00;7.00;;;;;7.99;70.49;100401.44;5057132;28;45272;-69
2022/11/20 05:56:19;;;;;;;;;9.25;9.25;;;;;7.99;70.56;100400.59;5056200;28;45813;-68
2022/11/20 05:58:46;;;;;;;;;5.75;5.75;;;;;7.94;70.14;100398.09;5055122;28;45472;-70
2022/11/20 06:01:21;;;;;;;;;4.25;4.25;;;;;7.84;70.16;100400.13;5056456;28;45337;-70
2022/11/20 06:03:47;;;;;;;;;4.75;4.75;;;;;7.79;70.29;100391.56;5056399;28;45672;-70
2022/11/20 06:06:14;;;;;;;;;5.25;5.25;;;;;7.76;70.40;100402.16;5056061;28;46638;-70
2022/11/20 06:08:40;;;;;;;;;5.25;5.25;;;;;7.74;70.45;100398.72;5055991;28;45315;-71
2022/11/20 06:11:07;;;;;;;;;5.00;5.00;;;;;7.72;70.40;100400.53;5056500;28;45443;-70
2022/11/20 06:13:33;;;;;;;;;6.25;6.25;;;;;7.62;70.69;100381.66;5055911;28;45363;-70
2022/11/20 06:15:58;;;;;;;;;5.25;5.25;;;;;7.63;71.05;100392.97;5055831;28;46086;-70
2022/11/20 06:18:27;;;;;;;;;7.00;7.00;;;;;7.56;70.16;100382.69;5054976;28;45330;-71
2022/11/20 06:21:06;;;;;;;;;6.00;6.00;;;;;7.60;70.67;100391.31;5056559;28;45443;-71
2022/11/20 06:23:33;;;;;;;;;5.25;5.25;;;;;7.59;70.64;100392.22;5055846;28;45391;-70
2022/11/20 06:26:07;;;;;;;;;5.00;5.00;;;;;7.59;70.94;100392.22;5055604;28;46102;-70
2022/11/20 06:28:33;;;;;;;;;6.00;6.00;;;;;7.61;70.51;100385.16;5056086;28;45342;-70
2022/11/20 06:30:58;;;;;;;;;5.75;5.75;;;;;7.61;70.22;100377.31;5055803;28;45295;-70
2022/11/20 06:33:24;;;;;;;;;5.75;5.75;;;;;7.64;70.95;100384.19;5056110;28;45596;-70
2022/11/20 06:35:49;;;;;;;;;6.00;6.00;;;;;7.58;70.51;100377.41;5055523;28;46404;-70
2022/11/20 06:38:14;;;;;;;;;4.75;4.75;;;;;7.57;70.56;100376.53;5055687;28;45224;-71
2022/11/20 06:40:43;;;;;;;;;5.25;5.00;;;;;7.58;70.22;100382.66;5055956;28;45339;-70
2022/11/20 06:43:09;;;;;;;;;6.00;6.00;;;;;7.62;70.44;100392.13;5055756;28;45629;-70
2022/11/20 06:45:35;;;;;;;;;5.75;5.75;;;;;7.59;71.03;100381.75;5055516;28;45451;-70
2022/11/20 06:48:01;;;;;;;;;6.25;6.25;;;;;7.56;70.71;100379.22;5055387;28;45393;-69
2022/11/20 06:50:26;;;;;;;;;6.25;5.75;;;;;7.57;70.75;100378.31;5055696;28;45913;-70
2022/11/20 06:52:51;;;;;;;;;6.50;6.50;;;;;7.54;70.49;100378.41;5056022;28;45388;-69
2022/11/20 06:55:16;;;;;;;;;6.75;6.75;;;;;7.56;70.76;100385.28;5055418;28;46446;-70
2022/11/20 06:57:42;;;;;;;;;6.25;6.25;;;;;7.58;70.58;100385.25;5055339;28;45295;-69
2022/11/20 07:00:08;;;;;;;;;7.00;7.00;;;;;7.58;71.28;100385.25;5055996;28;45269;-70
2022/11/20 07:02:34;;;;;;;;;8.00;8.00;;;;;7.62;70.94;100381.66;5054251;28;45256;-69
2022/11/20 07:04:59;;;;;;;;;8.00;8.00;;;;;7.60;70.83;100386.06;5055209;28;45432;-69
2022/11/20 07:07:24;;;;;;;;;8.75;8.75;;;;;7.61;70.95;100387.78;5055362;28;45278;-69
2022/11/20 07:09:50;;;;;;;;;9.25;9.25;;;;;7.65;71.09;100399.00;5055141;28;45294;-70
2022/11/20 07:12:15;;;;;;;;;8.75;8.75;;;;;7.66;71.30;100404.22;5054794;28;45514;-70
2022/11/20 07:14:40;;;;;;;;;10.50;10.50;;;;;7.67;71.05;100397.19;5054672;28;46096;-71
2022/11/20 07:17:06;;;;;;;;;12.00;12.00;;;;;7.68;71.26;100393.69;5053653;28;45362;-71
2022/11/20 07:19:31;;;;;;;;;15.75;15.75;;;;;7.69;71.36;100395.38;5055317;28;45245;-69
2022/11/20 07:21:56;;;;;;;;;11.25;9.00;;;;;7.69;71.13;100398.00;5055472;28;45506;-71
2022/11/20 07:24:22;;;;;;;;;8.50;8.50;;;;;7.63;71.33;100383.38;5054256;28;48297;-71
2022/11/20 07:26:48;;;;;;;;;11.25;11.25;;;;;7.63;70.88;100378.13;5055888;28;45535;-70
2022/11/20 07:29:14;;;;;;;;;9.75;9.75;;;;;7.73;71.34;100397.88;5055138;28;45427;-71
2022/11/20 07:31:39;;;;;;;;;10.00;10.00;;;;;7.73;71.21;100397.88;5054158;28;45323;-71
2022/11/20 07:34:05;;;;;;;;;9.00;9.00;;;;;7.75;70.71;100389.97;5055341;28;46584;-72
2022/11/20 07:36:30;;;;;;;;;8.50;8.50;;;;;7.74;70.27;100394.34;5053947;28;45433;-70
2022/11/20 07:38:56;;;;;;;;;8.25;8.25;;;;;7.73;70.43;100403.13;5055095;28;45352;-69
2022/11/20 07:41:21;;;;;;;;;6.00;6.00;;;;;7.67;70.04;100395.44;5053369;28;45412;-70
2022/11/20 07:43:46;;;;;;;;;10.75;10.75;;;;;7.70;70.81;100410.19;5053913;28;51909;-70
2022/11/20 07:46:12;;;;;;;;;9.00;9.00;;;;;7.65;69.97;100391.16;5054656;28;45459;-70
2022/11/20 07:48:37;;;;;;;;;8.00;8.00;;;;;7.69;69.89;100404.13;5053486;28;45383;-70
2022/11/20 07:51:02;;;;;;;;;6.75;6.75;;;;;7.71;69.64;100407.53;5054861;28;45347;-71
2022/11/20 07:53:28;;;;;;;;;8.00;8.00;;;;;7.68;69.69;100398.91;5054473;28;45482;-70
2022/11/20 07:55:53;;;;;;;;;9.00;9.00;;;;;7.67;69.89;100410.28;5054525;28;45410;-69
2022/11/20 07:58:20;;;;;;;;;14.00;14.00;;;;;7.62;70.13;100399.09;5054878;28;45660;-69
2022/11/20 08:00:45;;;;;;;;;7.50;7.50;;;;;7.62;70.10;100405.22;5055065;28;45507;-70
2022/11/20 08:03:11;;;;;;;;;8.50;8.50;;;;;7.63;69.43;100398.19;5052963;28;47191;-71
2022/11/20 08:05:37;;;;;;;;;9.00;9.00;;;;;7.66;70.26;100404.22;5054608;28;45217;-70
2022/11/20 08:08:02;;;;;;;;;9.00;9.00;;;;;7.69;69.90;100400.63;5054867;28;45382;-70
2022/11/20 08:10:28;;;;;;;;;10.00;8.25;;;;;7.70;70.20;100400.59;5053749;28;45390;-70
2022/11/20 08:15:40;;;;;;;;;10.00;10.00;;;;;7.79;69.77;100391.56;5054204;28;45329;-70
2022/11/20 08:18:08;;;;;;;;;8.00;8.00;;;;;7.86;69.71;100400.09;5054278;28;45358;-69
2022/11/20 08:20:34;;;;;;;;;6.50;6.50;;;;;7.89;69.81;100398.22;5054458;28;45275;-70
2022/11/20 08:23:07;;;;;;;;;9.00;9.00;;;;;7.96;69.91;100401.53;5053210;28;46596;-70
2022/11/20 08:25:37;;;;;;;;;8.00;8.00;;;;;8.05;69.36;100403.00;5053214;28;45330;-71
2022/11/20 08:28:05;;;;;;;;;9.50;9.50;;;;;8.13;69.55;100384.41;5053958;28;45343;-69
2022/11/20 08:30:31;;;;;;;;;9.75;9.75;;;;;8.19;69.81;100371.97;5053973;28;45277;-69
2022/11/20 08:33:02;;;;;;;;;8.75;8.75;;;;;8.30;68.75;100379.44;5053627;28;46193;-69
2022/11/20 08:35:28;;;;;;;;;9.50;9.50;;;;;8.36;69.22;100364.41;5054133;28;45323;-69
2022/11/20 08:37:53;;;;;;;;;9.00;9.00;;;;;8.45;69.51;100366.72;5053746;28;45331;-69
2022/11/20 08:40:18;;;;;;;;;9.25;9.25;;;;;8.48;69.61;100366.59;5054018;28;45554;-68
2022/11/20 08:42:51;;;;;;;;;10.25;10.25;;;;;8.53;69.60;100359.50;5053084;28;49673;-69
2022/11/20 08:45:18;;;;;;;;;10.00;10.00;;;;;8.56;69.86;100354.16;5053283;28;45394;-70
2022/11/20 08:47:44;;;;;;;;;11.75;11.75;;;;;8.58;69.70;100354.06;5053542;28;45547;-69
2022/11/20 08:50:11;;;;;;;;;11.50;10.00;;;;;8.59;69.43;100354.03;5053960;28;45294;-71
2022/11/20 08:52:37;;;;;;;;;10.50;10.50;;;;;8.56;68.98;100350.66;5051867;28;45418;-69
2022/11/20 08:55:03;;;;;;;;;10.25;10.25;;;;;8.58;69.36;100352.31;5052304;28;45339;-69
2022/11/20 08:57:31;;;;;;;;;13.25;13.25;;;;;8.58;69.50;100351.44;5053996;28;45363;-70
2022/11/20 08:59:57;;;;;;;;;12.00;12.00;;;;;8.53;68.92;100346.38;5053862;28;45560;-69
2022/11/20 09:02:22;;;;;;;;;11.50;11.50;;;;;8.55;69.41;100347.19;5053302;28;46529;-70
2022/11/20 09:04:47;;;;;;;;;29.75;29.75;;;;;8.52;69.92;100334.19;5052435;28;45433;-69
2022/11/20 09:07:13;;;;;;;;;18.50;18.50;;;;;8.54;69.88;100329.75;5053753;28;45295;-69
2022/11/20 09:09:38;;;;;;;;;20.25;20.00;;;;;8.56;70.44;100325.31;5054117;28;45667;-69
2022/11/20 09:12:04;;;;;;;;;12.00;12.00;;;;;8.59;70.55;100319.94;5053359;28;45374;-69
2022/11/20 09:14:29;;;;;;;;;13.50;13.50;;;;;8.62;70.80;100326.84;5053691;28;45455;-69
2022/11/20 09:16:56;;;;;;;;;21.00;21.00;;;;;8.60;70.62;100316.41;5053357;28;45326;-68
2022/11/20 09:19:21;;;;;;;;;12.25;12.25;;;;;8.64;70.98;100314.53;5052169;28;45535;-70
2022/11/20 09:21:47;;;;;;;;;15.25;15.25;;;;;8.66;70.61;100314.47;5053278;28;46009;-70
2022/11/20 09:24:12;;;;;;;;;15.75;15.75;;;;;8.64;70.34;100314.53;5053328;28;45283;-68
2022/11/20 09:26:37;;;;;;;;;14.25;14.25;;;;;8.64;70.72;100318.94;5053337;28;45343;-69
2022/11/20 09:29:03;;;;;;;;;12.25;12.25;;;;;8.64;70.96;100311.06;5053739;28;45505;-69
2022/11/20 09:31:28;;;;;;;;;13.25;13.25;;;;;8.68;71.57;100307.41;5053009;28;46234;-69
2022/11/20 09:33:53;;;;;;;;;14.75;14.25;;;;;8.70;71.27;100305.59;5053978;28;45378;-69
2022/11/20 09:36:19;;;;;;;;;21.75;21.75;;;;;8.69;71.56;100304.72;5056794;28;45338;-69
2022/11/20 09:38:48;;;;;;;;;16.25;16.25;;;;;8.70;71.57;100305.59;5056776;28;45652;-69
2022/11/20 09:41:31;;;;;;;;;12.00;12.00;;;;;8.67;71.57;100290.81;5056350;28;45440;-70
2022/11/20 09:44:27;;;;;;;;;11.00;11.00;;;;;8.66;71.64;100294.34;5056112;28;45339;-69
2022/11/20 09:47:08;;;;;;;;;15.75;15.50;;;;;8.64;71.54;100290.09;5056367;28;45499;-70
2022/11/20 09:50:14;;;;;;;;;16.50;16.50;;;;;8.63;72.08;100291.84;5056616;28;45496;-69
2022/11/20 09:53:01;;;;;;;;;13.75;13.00;;;;;8.66;72.05;100288.25;5049337;28;47365;-70
2022/11/20 09:55:29;;;;;;;;;13.75;13.75;;;;;8.68;72.43;100291.69;5056537;28;45230;-69
2022/11/20 09:57:55;;;;;;;;;11.25;11.25;;;;;8.67;72.34;100282.94;5056592;28;45413;-69
2022/11/20 10:00:21;;;;;;;;;14.00;14.00;;;;;8.63;72.34;100286.59;5056928;28;45339;-69
2022/11/20 10:03:05;;;;;;;;;14.50;14.50;;;;;8.58;72.70;100284.16;5056036;28;46066;-69
2022/11/20 10:05:43;;;;;;;;;14.00;14.00;;;;;8.55;72.75;100288.63;5056058;28;45458;-70
2022/11/20 10:08:41;;;;;;;;;17.50;17.50;;;;;8.52;73.30;100281.75;5054767;28;45494;-71
2022/11/20 10:11:06;;;;;;;;;13.25;13.25;;;;;8.54;73.20;100277.31;5020052;28;45352;-69
2022/11/20 10:13:50;;;;;;;;;15.25;15.25;;;;;8.57;73.19;100277.19;5054156;28;47016;-71
2022/11/20 10:16:48;;;;;;;;;15.25;14.75;;;;;8.47;73.56;100257.41;5054742;28;45567;-71
2022/11/20 10:19:13;;;;;;;;;14.25;14.25;;;;;8.50;73.89;100265.22;5055707;28;45427;-69
2022/11/20 10:21:48;;;;;;;;;15.25;15.25;;;;;8.52;74.05;100266.03;5054993;28;45378;-70
2022/11/20 10:24:19;;;;;;;;;13.00;13.00;;;;;8.54;74.49;100258.97;5056265;28;45895;-70
2022/11/20 10:27:07;;;;;;;;;11.00;11.00;;;;;8.51;74.44;100247.72;5055981;28;45249;-69
2022/11/20 10:29:34;;;;;;;;;15.25;15.25;;;;;8.60;74.99;100261.34;5054034;28;45511;-69
2022/11/20 10:32:04;;;;;;;;;18.50;17.50;;;;;8.65;74.82;100249.84;5055725;28;45319;-69
2022/11/20 10:34:45;;;;;;;;;12.50;12.50;;;;;8.63;75.39;100244.63;5055625;28;45630;-72
2022/11/20 10:37:25;;;;;;;;;11.25;11.25;;;;;8.68;75.77;100236.63;5055626;28;45390;-70
2022/11/20 10:39:56;;;;;;;;;15.00;15.00;;;;;8.74;76.11;100239.00;5055404;28;45261;-71
2022/11/20 10:42:42;;;;;;;;;12.25;12.25;;;;;8.82;76.00;100236.94;5055352;28;45504;-69
2022/11/20 10:45:31;;;;;;;;;12.50;12.50;;;;;8.82;75.65;100229.06;5054820;28;45340;-69
2022/11/20 10:48:09;;;;;;;;;13.25;13.25;;;;;8.83;76.05;100225.53;5053871;28;45392;-70
2022/11/20 10:50:40;;;;;;;;;11.25;11.25;;;;;8.81;76.08;100231.75;5056146;27;45445;-69
2022/11/20 10:53:37;;;;;;;;;44.50;38.00;;;;;8.84;76.48;100232.50;5056212;28;45291;-69
2022/11/20 10:56:16;;;;;;;;;13.50;13.50;;;;;8.91;76.18;100235.72;5054531;28;48333;-72
2022/11/20 10:58:57;;;;;;;;;16.00;16.00;;;;;8.92;76.73;100226.94;5055386;28;45406;-70
2022/11/20 11:01:23;;;;;;;;;11.75;11.75;;;;;8.90;76.71;100216.50;5055079;28;45246;-69
2022/11/20 11:03:51;;;;;;;;;10.25;10.25;;;;;8.90;76.39;100210.41;5055514;28;45465;-71
2022/11/20 11:06:35;;;;;;;;;14.00;14.00;;;;;8.94;76.55;100213.78;5055446;28;46141;-70
2022/11/20 11:09:08;;;;;;;;;13.75;13.75;;;;;8.97;77.35;100209.25;5053970;28;46128;-70
2022/11/20 11:11:34;;;;;;;;;13.50;13.50;;;;;8.97;77.79;100206.63;5055150;28;45255;-70
2022/11/20 11:14:14;;;;;;;;;12.50;12.25;;;;;8.91;78.13;100204.25;5054268;28;45467;-70
2022/11/20 11:16:52;;;;;;;;;10.75;10.50;;;;;8.82;78.69;100191.47;5055306;28;45330;-69
2022/11/20 11:19:17;;;;;;;;;11.50;11.50;;;;;8.81;79.57;100189.78;5054581;28;45277;-69
2022/11/20 11:21:54;;;;;;;;;11.50;11.50;;;;;8.77;79.80;100182.03;5054728;28;45352;-70
2022/11/20 11:24:25;;;;;;;;;20.25;20.00;;;;;8.74;80.22;100178.69;5054967;28;45361;-71
2022/11/20 11:27:04;;;;;;;;;9.75;9.75;;;;;8.75;80.29;100176.00;5054965;28;45364;-71
2022/11/20 11:29:30;;;;;;;;;10.00;10.00;;;;;8.73;80.56;100172.56;5054804;28;45312;-70
2022/11/20 11:32:18;;;;;;;;;9.00;9.00;;;;;8.74;80.85;100170.81;5054637;28;45366;-70
2022/11/20 11:34:43;;;;;;;;;7.25;7.25;;;;;8.71;80.83;100179.66;5054963;28;45330;-70
2022/11/20 11:37:21;;;;;;;;;8.75;8.75;;;;;8.66;80.86;100168.47;5053313;28;47499;-71